Terminal Aerodrome Forecast
Issued by NWS

Home | Current Version | Previous Version | Text Only | Print | Product List | Glossary On
Versions: 1 2 3 4 5 6 7 8 9 10 11 12 13 14 15 16 17 18 19 20 21 22 23
000
FTUS46 KLOX 060559
TAFLGB
TAF
KLGB 060559Z 0606/0706 VRB03KT P6SM -SHRA VCTS SCT025 BKN040CB
     FM060900 14004KT P6SM -SHRA SCT025 BKN040
     FM061200 15005KT P6SM -SHRA BKN025 OVC040
     FM061600 19007KT P6SM -SHRA BKN025 OVC040 PROB30 0619/0621 6SM
      TSRA OVC020CB
     FM070000 25008KT P6SM VCSH SCT025 BKN040
     FM070400 29006KT P6SM -SHRA BKN025 OVC040=

USA.gov is the U.S. government's official web portal to all federal, state and local government web resources and services.